Time,TemperatureF,DewpointF,PressureIn,WindDirection,WindDirectionDegrees,WindSpeedMPH,WindSpeedGustMPH,Humidity,HourlyPrecipIn,Conditions,Clouds,dailyrainin,SoftwareType,DateUTC
2013-10-18 00:00:00,66.0,63.6,29.89,West,270,0.0,-999.0,92,0.00,,,0.00,Wunderground v.1.15,2013-10-18 04:00:00,
2013-10-18 00:05:00,66.0,63.6,29.89,West,270,0.0,-999.0,92,0.00,,,0.00,Wunderground v.1.15,2013-10-18 04:05:00,
2013-10-18 00:10:00,66.0,63.6,29.89,West,270,0.0,-999.0,92,0.00,,,0.00,Wunderground v.1.15,2013-10-18 04:10:00,
2013-10-18 00:15:00,66.0,63.6,29.89,West,270,0.0,-999.0,92,0.00,,,0.00,Wunderground v.1.15,2013-10-18 04:15:00,
2013-10-18 00:20:00,66.0,63.6,29.89,West,270,0.0,-999.0,92,0.00,,,0.00,Wunderground v.1.15,2013-10-18 04:20:00,
2013-10-18 00:25:00,66.0,63.6,29.89,West,270,0.0,-999.0,92,0.00,,,0.00,Wunderground v.1.15,2013-10-18 04:25:00,
2013-10-18 00:30:00,66.0,63.6,29.89,West,270,0.0,-999.0,92,0.00,,,0.00,Wunderground v.1.15,2013-10-18 04:30:00,
2013-10-18 00:35:00,66.0,63.6,29.89,West,270,0.0,-999.0,92,0.00,,,0.00,Wunderground v.1.15,2013-10-18 04:35:00,
2013-10-18 00:40:00,66.0,63.6,29.89,West,270,0.0,-999.0,92,0.00,,,0.00,Wunderground v.1.15,2013-10-18 04:40:00,
2013-10-18 00:45:00,65.2,63.1,29.89,West,270,0.0,-999.0,93,0.00,,,0.00,Wunderground v.1.15,2013-10-18 04:45:00,
2013-10-18 00:50:00,65.2,63.1,29.89,West,270,0.0,-999.0,93,0.00,,,0.00,Wunderground v.1.15,2013-10-18 04:50:00,
2013-10-18 00:55:00,65.2,63.1,29.89,West,270,0.0,-999.0,93,0.00,,,0.00,Wunderground v.1.15,2013-10-18 04:55:00,
2013-10-18 01:00:00,65.2,63.1,29.89,West,270,0.0,-999.0,93,0.00,,,0.00,Wunderground v.1.15,2013-10-18 05:00:00,
2013-10-18 01:05:00,65.2,63.1,29.89,West,270,0.0,-999.0,93,0.00,,,0.00,Wunderground v.1.15,2013-10-18 05:05:00,
2013-10-18 01:10:00,65.2,63.1,29.89,West,270,0.0,-999.0,93,0.00,,,0.00,Wunderground v.1.15,2013-10-18 05:10:00,
2013-10-18 01:15:00,64.9,62.8,29.89,West,270,0.0,-999.0,93,0.00,,,0.00,Wunderground v.1.15,2013-10-18 05:15:00,
2013-10-18 01:20:00,64.9,62.8,29.89,West,270,0.0,-999.0,93,0.00,,,0.00,Wunderground v.1.15,2013-10-18 05:20:00,
2013-10-18 01:25:00,64.9,62.8,29.89,West,270,0.0,-999.0,93,0.00,,,0.00,Wunderground v.1.15,2013-10-18 05:25:00,
2013-10-18 01:30:00,64.9,62.8,29.89,West,270,0.0,-999.0,93,0.00,,,0.00,Wunderground v.1.15,2013-10-18 05:30:00,
2013-10-18 01:35:00,64.9,62.8,29.89,West,270,0.0,-999.0,93,0.00,,,0.00,Wunderground v.1.15,2013-10-18 05:35:00,
2013-10-18 01:40:00,64.9,62.8,29.89,West,270,0.0,-999.0,93,0.00,,,0.00,Wunderground v.1.15,2013-10-18 05:40:00,
2013-10-18 01:45:00,64.3,62.2,29.89,N/A,-737280,0.0,-999.0,93,0.00,,,0.00,Wunderground v.1.15,2013-10-18 05:45:00,
2013-10-18 01:50:00,64.3,62.2,29.89,N/A,-737280,0.0,-999.0,93,0.00,,,0.00,Wunderground v.1.15,2013-10-18 05:50:00,
2013-10-18 01:55:00,64.3,62.2,29.89,N/A,-737280,0.0,-999.0,93,0.00,,,0.00,Wunderground v.1.15,2013-10-18 05:55:00,
2013-10-18 02:00:00,64.3,62.2,29.89,N/A,-737280,0.0,-999.0,93,0.00,,,0.00,Wunderground v.1.15,2013-10-18 06:00:00,
2013-10-18 02:05:00,64.3,62.2,29.89,N/A,-737280,0.0,-999.0,93,0.00,,,0.00,Wunderground v.1.15,2013-10-18 06:05:00,
2013-10-18 02:10:00,64.3,62.2,29.89,N/A,-737280,0.0,-999.0,93,0.00,,,0.00,Wunderground v.1.15,2013-10-18 06:10:00,
2013-10-18 02:15:00,63.5,61.7,29.90,N/A,-737280,0.0,-999.0,94,0.00,,,0.00,Wunderground v.1.15,2013-10-18 06:15:00,
2013-10-18 02:20:00,63.5,61.7,29.90,N/A,-737280,0.0,-999.0,94,0.00,,,0.00,Wunderground v.1.15,2013-10-18 06:20:00,
2013-10-18 02:25:00,63.5,61.7,29.90,N/A,-737280,0.0,-999.0,94,0.00,,,0.00,Wunderground v.1.15,2013-10-18 06:25:00,
2013-10-18 02:30:00,63.5,61.7,29.90,N/A,-737280,0.0,-999.0,94,0.00,,,0.00,Wunderground v.1.15,2013-10-18 06:30:00,
2013-10-18 02:35:00,63.5,61.7,29.90,N/A,-737280,0.0,-999.0,94,0.00,,,0.00,Wunderground v.1.15,2013-10-18 06:35:00,
2013-10-18 02:40:00,63.5,61.7,29.90,N/A,-737280,0.0,-999.0,94,0.00,,,0.00,Wunderground v.1.15,2013-10-18 06:40:00,
2013-10-18 02:45:00,63.3,61.5,29.90,West,270,0.0,-999.0,94,0.00,,,0.00,Wunderground v.1.15,2013-10-18 06:45:00,
2013-10-18 02:50:00,63.3,61.5,29.90,West,270,0.0,-999.0,94,0.00,,,0.00,Wunderground v.1.15,2013-10-18 06:50:00,
2013-10-18 02:55:00,63.3,61.5,29.90,West,270,0.0,-999.0,94,0.00,,,0.00,Wunderground v.1.15,2013-10-18 06:55:00,
2013-10-18 03:00:00,63.3,61.5,29.90,West,270,0.0,-999.0,94,0.00,,,0.00,Wunderground v.1.15,2013-10-18 07:00:00,
2013-10-18 03:05:00,63.3,61.5,29.90,West,270,0.0,-999.0,94,0.00,,,0.00,Wunderground v.1.15,2013-10-18 07:05:00,
2013-10-18 03:10:00,63.3,61.5,29.90,West,270,0.0,-999.0,94,0.00,,,0.00,Wunderground v.1.15,2013-10-18 07:10:00,
2013-10-18 03:15:00,63.2,61.4,29.90,West,270,0.0,-999.0,94,0.00,,,0.00,Wunderground v.1.15,2013-10-18 07:15:00,
2013-10-18 03:20:00,63.2,61.4,29.90,West,270,0.0,-999.0,94,0.00,,,0.00,Wunderground v.1.15,2013-10-18 07:20:00,
2013-10-18 03:25:00,63.2,61.4,29.90,West,270,0.0,-999.0,94,0.00,,,0.00,Wunderground v.1.15,2013-10-18 07:25:00,
2013-10-18 03:30:00,63.2,61.4,29.90,West,270,0.0,-999.0,94,0.00,,,0.00,Wunderground v.1.15,2013-10-18 07:30:00,
2013-10-18 03:35:00,63.2,61.4,29.90,West,270,0.0,-999.0,94,0.00,,,0.00,Wunderground v.1.15,2013-10-18 07:35:00,
2013-10-18 03:40:00,63.2,61.4,29.90,West,270,0.0,-999.0,94,0.00,,,0.00,Wunderground v.1.15,2013-10-18 07:40:00,
2013-10-18 03:45:00,61.2,59.2,29.90,West,270,0.0,-999.0,93,0.00,,,0.00,Wunderground v.1.15,2013-10-18 07:45:00,
2013-10-18 03:50:00,61.2,59.2,29.90,West,270,0.0,-999.0,93,0.00,,,0.00,Wunderground v.1.15,2013-10-18 07:50:00,
2013-10-18 03:55:00,61.2,59.2,29.90,West,270,0.0,-999.0,93,0.00,,,0.00,Wunderground v.1.15,2013-10-18 07:55:00,
2013-10-18 04:00:00,61.2,59.2,29.90,West,270,0.0,-999.0,93,0.00,,,0.00,Wunderground v.1.15,2013-10-18 08:00:00,
2013-10-18 04:05:00,61.2,59.2,29.90,West,270,0.0,-999.0,93,0.00,,,0.00,Wunderground v.1.15,2013-10-18 08:05:00,
2013-10-18 04:10:00,61.2,59.2,29.90,West,270,0.0,-999.0,93,0.00,,,0.00,Wunderground v.1.15,2013-10-18 08:10:00,
2013-10-18 04:15:00,59.1,56.8,29.91,ESE,113,0.0,-999.0,92,0.00,,,0.00,Wunderground v.1.15,2013-10-18 08:15:00,
2013-10-18 04:20:00,59.1,56.8,29.91,ESE,113,0.0,-999.0,92,0.00,,,0.00,Wunderground v.1.15,2013-10-18 08:20:00,
2013-10-18 04:25:00,59.1,56.8,29.91,ESE,113,0.0,-999.0,92,0.00,,,0.00,Wunderground v.1.15,2013-10-18 08:25:00,
2013-10-18 04:30:00,59.1,56.8,29.91,ESE,113,0.0,-999.0,92,0.00,,,0.00,Wunderground v.1.15,2013-10-18 08:30:00,
2013-10-18 04:35:00,59.1,56.8,29.91,ESE,113,0.0,-999.0,92,0.00,,,0.00,Wunderground v.1.15,2013-10-18 08:35:00,
2013-10-18 04:40:00,59.1,56.8,29.91,ESE,113,0.0,-999.0,92,0.00,,,0.00,Wunderground v.1.15,2013-10-18 08:40:00,
2013-10-18 04:45:00,58.4,56.1,29.92,North,0,0.0,-999.0,92,0.00,,,0.00,Wunderground v.1.15,2013-10-18 08:45:00,
2013-10-18 04:50:00,58.4,56.1,29.92,North,0,0.0,-999.0,92,0.00,,,0.00,Wunderground v.1.15,2013-10-18 08:50:00,
2013-10-18 04:55:00,58.4,56.1,29.92,North,0,0.0,-999.0,92,0.00,,,0.00,Wunderground v.1.15,2013-10-18 08:55:00,
2013-10-18 05:00:00,58.4,56.1,29.92,North,0,0.0,-999.0,92,0.00,,,0.00,Wunderground v.1.15,2013-10-18 09:00:00,
2013-10-18 05:05:00,58.4,56.1,29.92,North,0,0.0,-999.0,92,0.00,,,0.00,Wunderground v.1.15,2013-10-18 09:05:00,
2013-10-18 05:10:00,58.4,56.1,29.92,North,0,0.0,-999.0,92,0.00,,,0.00,Wunderground v.1.15,2013-10-18 09:10:00,
2013-10-18 05:15:00,57.9,55.6,29.93,N/A,-737280,0.0,-999.0,92,0.00,,,0.00,Wunderground v.1.15,2013-10-18 09:15:00,
2013-10-18 05:20:00,57.9,55.6,29.93,N/A,-737280,0.0,-999.0,92,0.00,,,0.00,Wunderground v.1.15,2013-10-18 09:20:00,
2013-10-18 05:25:00,57.9,55.6,29.93,N/A,-737280,0.0,-999.0,92,0.00,,,0.00,Wunderground v.1.15,2013-10-18 09:25:00,
2013-10-18 05:30:00,57.9,55.6,29.93,N/A,-737280,0.0,-999.0,92,0.00,,,0.00,Wunderground v.1.15,2013-10-18 09:30:00,
2013-10-18 05:35:00,57.9,55.6,29.93,N/A,-737280,0.0,-999.0,92,0.00,,,0.00,Wunderground v.1.15,2013-10-18 09:35:00,
2013-10-18 05:40:00,57.9,55.6,29.93,N/A,-737280,0.0,-999.0,92,0.00,,,0.00,Wunderground v.1.15,2013-10-18 09:40:00,
2013-10-18 05:45:00,57.2,55.2,29.93,North,0,0.0,-999.0,93,0.00,,,0.00,Wunderground v.1.15,2013-10-18 09:45:00,
2013-10-18 05:50:00,57.2,55.2,29.93,North,0,0.0,-999.0,93,0.00,,,0.00,Wunderground v.1.15,2013-10-18 09:50:00,
2013-10-18 05:55:00,57.2,55.2,29.93,North,0,0.0,-999.0,93,0.00,,,0.00,Wunderground v.1.15,2013-10-18 09:55:00,
2013-10-18 06:00:00,57.2,55.2,29.93,North,0,0.0,-999.0,93,0.00,,,0.00,Wunderground v.1.15,2013-10-18 10:00:00,
2013-10-18 06:05:00,57.2,55.2,29.93,North,0,0.0,-999.0,93,0.00,,,0.00,Wunderground v.1.15,2013-10-18 10:05:00,
2013-10-18 06:10:00,57.2,55.2,29.93,North,0,0.0,-999.0,93,0.00,,,0.00,Wunderground v.1.15,2013-10-18 10:10:00,
2013-10-18 06:15:00,57.1,55.1,29.94,N/A,-737280,0.0,-999.0,93,0.00,,,0.00,Wunderground v.1.15,2013-10-18 10:15:00,
2013-10-18 06:20:00,57.1,55.1,29.94,N/A,-737280,0.0,-999.0,93,0.00,,,0.00,Wunderground v.1.15,2013-10-18 10:20:00,
2013-10-18 06:25:00,57.1,55.1,29.94,N/A,-737280,0.0,-999.0,93,0.00,,,0.00,Wunderground v.1.15,2013-10-18 10:25:00,
2013-10-18 06:30:00,57.1,55.1,29.94,N/A,-737280,0.0,-999.0,93,0.00,,,0.00,Wunderground v.1.15,2013-10-18 10:30:00,
2013-10-18 06:35:00,57.1,55.1,29.94,N/A,-737280,0.0,-999.0,93,0.00,,,0.00,Wunderground v.1.15,2013-10-18 10:35:00,
2013-10-18 06:40:00,57.1,55.1,29.94,N/A,-737280,0.0,-999.0,93,0.00,,,0.00,Wunderground v.1.15,2013-10-18 10:40:00,
2013-10-18 06:45:00,56.9,55.2,29.95,NE,45,0.0,-999.0,94,0.00,,,0.00,Wunderground v.1.15,2013-10-18 10:45:00,
2013-10-18 06:50:00,56.9,55.2,29.95,NE,45,0.0,-999.0,94,0.00,,,0.00,Wunderground v.1.15,2013-10-18 10:50:00,
2013-10-18 06:55:00,56.9,55.2,29.95,NE,45,0.0,-999.0,94,0.00,,,0.00,Wunderground v.1.15,2013-10-18 10:55:00,
2013-10-18 07:00:00,56.9,55.2,29.95,NE,45,0.0,-999.0,94,0.00,,,0.00,Wunderground v.1.15,2013-10-18 11:00:00,
2013-10-18 07:05:00,56.9,55.2,29.95,NE,45,0.0,-999.0,94,0.00,,,0.00,Wunderground v.1.15,2013-10-18 11:05:00,
2013-10-18 07:10:00,56.9,55.2,29.95,NE,45,0.0,-999.0,94,0.00,,,0.00,Wunderground v.1.15,2013-10-18 11:10:00,
2013-10-18 07:15:00,56.0,53.7,29.96,ENE,68,0.0,-999.0,92,0.00,,,0.00,Wunderground v.1.15,2013-10-18 11:15:00,
2013-10-18 07:20:00,56.0,53.7,29.96,ENE,68,0.0,-999.0,92,0.00,,,0.00,Wunderground v.1.15,2013-10-18 11:20:00,
2013-10-18 07:25:00,56.0,53.7,29.96,ENE,68,0.0,-999.0,92,0.00,,,0.00,Wunderground v.1.15,2013-10-18 11:25:00,
2013-10-18 07:30:00,56.0,53.7,29.96,ENE,68,0.0,-999.0,92,0.00,,,0.00,Wunderground v.1.15,2013-10-18 11:30:00,
2013-10-18 07:35:00,56.0,53.7,29.96,ENE,68,0.0,-999.0,92,0.00,,,0.00,Wunderground v.1.15,2013-10-18 11:35:00,
2013-10-18 07:40:00,56.0,53.7,29.96,ENE,68,0.0,-999.0,92,0.00,,,0.00,Wunderground v.1.15,2013-10-18 11:40:00,
2013-10-18 07:45:00,55.2,52.6,29.98,NE,45,0.0,-999.0,91,0.00,,,0.00,Wunderground v.1.15,2013-10-18 11:45:00,
2013-10-18 07:50:00,55.2,52.6,29.98,NE,45,0.0,-999.0,91,0.00,,,0.00,Wunderground v.1.15,2013-10-18 11:50:00,
2013-10-18 07:55:00,55.2,52.6,29.98,NE,45,0.0,-999.0,91,0.00,,,0.00,Wunderground v.1.15,2013-10-18 11:55:00,
2013-10-18 08:00:00,55.2,52.6,29.98,NE,45,0.0,-999.0,91,0.00,,,0.00,Wunderground v.1.15,2013-10-18 12:00:00,
2013-10-18 08:05:00,55.2,52.6,29.98,NE,45,0.0,-999.0,91,0.00,,,0.00,Wunderground v.1.15,2013-10-18 12:05:00,
2013-10-18 08:10:00,55.2,52.6,29.98,NE,45,0.0,-999.0,91,0.00,,,0.00,Wunderground v.1.15,2013-10-18 12:10:00,
2013-10-18 08:15:00,55.0,52.1,30.00,NE,45,0.0,-999.0,90,0.00,,,0.00,Wunderground v.1.15,2013-10-18 12:15:00,
2013-10-18 08:20:00,55.0,52.1,30.00,NE,45,0.0,-999.0,90,0.00,,,0.00,Wunderground v.1.15,2013-10-18 12:20:00,
2013-10-18 08:25:00,55.0,52.1,30.00,NE,45,0.0,-999.0,90,0.00,,,0.00,Wunderground v.1.15,2013-10-18 12:25:00,
2013-10-18 08:30:00,55.0,52.1,30.00,NE,45,0.0,-999.0,90,0.00,,,0.00,Wunderground v.1.15,2013-10-18 12:30:00,
2013-10-18 08:35:00,55.0,52.1,30.00,NE,45,0.0,-999.0,90,0.00,,,0.00,Wunderground v.1.15,2013-10-18 12:35:00,
2013-10-18 08:40:00,55.0,52.1,30.00,NE,45,0.0,-999.0,90,0.00,,,0.00,Wunderground v.1.15,2013-10-18 12:40:00,
2013-10-18 08:45:00,55.6,51.8,30.01,NE,45,0.0,-999.0,87,0.00,,,0.00,Wunderground v.1.15,2013-10-18 12:45:00,
2013-10-18 08:50:00,55.6,51.8,30.01,NE,45,0.0,-999.0,87,0.00,,,0.00,Wunderground v.1.15,2013-10-18 12:50:00,
2013-10-18 08:55:00,55.6,51.8,30.01,NE,45,0.0,-999.0,87,0.00,,,0.00,Wunderground v.1.15,2013-10-18 12:55:00,
2013-10-18 09:00:00,55.6,51.8,30.01,NE,45,0.0,-999.0,87,0.00,,,0.00,Wunderground v.1.15,2013-10-18 13:00:00,
2013-10-18 09:25:00,56.9,51.8,30.02,NNE,26,1.0,1.0,83,0.00,,,0.00,Wunderground v.1.15,2013-10-18 13:25:00,
2013-10-18 09:30:00,57.2,52.4,30.02,North,355,1.0,1.0,84,0.00,,,0.00,Wunderground v.1.15,2013-10-18 13:30:00,
2013-10-18 09:35:00,57.4,52.3,30.02,ESE,114,1.0,1.0,83,0.00,,,0.00,Wunderground v.1.15,2013-10-18 13:35:00,
2013-10-18 09:40:00,57.6,52.8,30.03,NE,55,0.0,1.0,84,0.00,,,0.00,Wunderground v.1.15,2013-10-18 13:40:00,
2013-10-18 09:45:00,57.9,52.8,30.03,NNE,17,0.0,3.0,83,0.00,,,0.00,Wunderground v.1.15,2013-10-18 13:45:00,
2013-10-18 09:50:00,58.0,52.2,30.03,NE,41,1.0,3.0,81,0.00,,,0.00,Wunderground v.1.15,2013-10-18 13:50:00,
2013-10-18 09:55:00,58.1,52.6,30.03,NE,49,1.0,1.0,82,0.00,,,0.00,Wunderground v.1.15,2013-10-18 13:55:00,
2013-10-18 10:00:00,58.3,52.8,30.03,NNE,23,1.0,1.0,82,0.00,,,0.00,Wunderground v.1.15,2013-10-18 14:00:00,
2013-10-18 10:05:00,58.4,52.6,30.03,NW,326,1.0,4.0,81,0.00,,,0.00,Wunderground v.1.15,2013-10-18 14:05:00,
2013-10-18 10:10:00,58.6,52.4,30.03,North,350,1.0,4.0,80,0.00,,,0.00,Wunderground v.1.15,2013-10-18 14:10:00,
2013-10-18 10:15:00,58.7,52.5,30.03,NE,36,1.0,4.0,80,0.00,,,0.00,Wunderground v.1.15,2013-10-18 14:15:00,
2013-10-18 10:20:00,59.0,52.8,30.03,ENE,57,1.0,4.0,80,0.00,,,0.00,Wunderground v.1.15,2013-10-18 14:20:00,
2013-10-18 10:25:00,59.1,52.6,30.04,ENE,65,1.0,4.0,79,0.00,,,0.00,Wunderground v.1.15,2013-10-18 14:25:00,
2013-10-18 10:30:00,59.5,53.3,30.04,ENE,57,1.0,4.0,80,0.00,,,0.00,Wunderground v.1.15,2013-10-18 14:30:00,
2013-10-18 10:35:00,60.0,53.1,30.04,NNW,332,0.0,4.0,78,0.00,,,0.00,Wunderground v.1.15,2013-10-18 14:35:00,
2013-10-18 10:40:00,60.4,53.5,30.04,ESE,115,0.0,4.0,78,0.00,,,0.00,Wunderground v.1.15,2013-10-18 14:40:00,
2013-10-18 10:50:00,61.8,53.8,30.03,ENE,62,1.0,4.0,75,0.00,,,0.00,Wunderground v.1.15,2013-10-18 14:50:00,
2013-10-18 10:55:00,62.4,53.6,30.04,ENE,67,1.0,4.0,73,0.00,,,0.00,Wunderground v.1.15,2013-10-18 14:55:00,
2013-10-18 11:00:00,62.6,53.4,30.03,NW,321,1.0,1.0,72,0.00,,,0.00,Wunderground v.1.15,2013-10-18 15:00:00,
2013-10-18 11:05:00,62.6,53.8,30.03,ENE,67,1.0,4.0,73,0.00,,,0.00,Wunderground v.1.15,2013-10-18 15:05:00,
2013-10-18 11:10:00,62.7,53.2,30.03,NW,311,0.0,4.0,71,0.00,,,0.00,Wunderground v.1.15,2013-10-18 15:10:00,
2013-10-18 11:15:00,62.8,52.9,30.03,NNE,26,1.0,4.0,70,0.00,,,0.00,Wunderground v.1.15,2013-10-18 15:15:00,
2013-10-18 11:20:00,62.8,53.3,30.03,North,355,1.0,4.0,71,0.00,,,0.00,Wunderground v.1.15,2013-10-18 15:20:00,
2013-10-18 11:25:00,62.8,53.3,30.03,NNE,32,1.0,4.0,71,0.00,,,0.00,Wunderground v.1.15,2013-10-18 15:25:00,
2013-10-18 11:30:00,63.0,52.7,30.03,ENE,74,1.0,1.0,69,0.00,,,0.00,Wunderground v.1.15,2013-10-18 15:30:00,
2013-10-18 11:35:00,63.0,52.7,30.03,NE,41,1.0,4.0,69,0.00,,,0.00,Wunderground v.1.15,2013-10-18 15:35:00,
2013-10-18 11:40:00,63.2,53.3,30.03,North,9,1.0,1.0,70,0.00,,,0.00,Wunderground v.1.15,2013-10-18 15:40:00,
2013-10-18 11:45:00,63.5,53.9,30.03,ENE,74,1.0,4.0,71,0.00,,,0.00,Wunderground v.1.15,2013-10-18 15:45:00,
2013-10-18 11:50:00,64.0,54.4,30.03,East,100,1.0,1.0,71,0.00,,,0.00,Wunderground v.1.15,2013-10-18 15:50:00,
2013-10-18 11:55:00,64.3,54.3,30.03,NNE,30,1.0,4.0,70,0.00,,,0.00,Wunderground v.1.15,2013-10-18 15:55:00,
2013-10-18 12:00:00,64.6,53.8,30.02,ENE,71,1.0,1.0,68,0.00,,,0.00,Wunderground v.1.15,2013-10-18 16:00:00,
2013-10-18 12:05:00,65.0,53.8,30.02,East,92,1.0,2.0,67,0.00,,,0.00,Wunderground v.1.15,2013-10-18 16:05:00,
2013-10-18 12:10:00,65.6,54.8,30.02,East,90,0.0,4.0,68,0.00,,,0.00,Wunderground v.1.15,2013-10-18 16:10:00,
2013-10-18 12:15:00,66.1,54.8,30.02,East,82,0.0,4.0,67,0.00,,,0.00,Wunderground v.1.15,2013-10-18 16:15:00,
2013-10-18 12:20:00,66.6,54.5,30.02,ENE,66,0.0,4.0,65,0.00,,,0.00,Wunderground v.1.15,2013-10-18 16:20:00,
2013-10-18 12:25:00,67.1,54.9,30.02,SSE,163,0.0,4.0,65,0.00,,,0.00,Wunderground v.1.15,2013-10-18 16:25:00,
2013-10-18 12:30:00,67.4,55.2,30.02,East,94,0.0,4.0,65,0.00,,,0.00,Wunderground v.1.15,2013-10-18 16:30:00,
2013-10-18 12:35:00,67.6,54.1,30.01,SSE,168,1.0,4.0,62,0.00,,,0.00,Wunderground v.1.15,2013-10-18 16:35:00,
2013-10-18 12:40:00,67.8,55.2,30.01,NNE,20,1.0,4.0,64,0.00,,,0.00,Wunderground v.1.15,2013-10-18 16:40:00,
2013-10-18 12:45:00,67.9,53.5,30.01,NE,53,1.0,4.0,60,0.00,,,0.00,Wunderground v.1.15,2013-10-18 16:45:00,
2013-10-18 12:50:00,67.8,55.2,30.01,East,84,1.0,1.0,64,0.00,,,0.00,Wunderground v.1.15,2013-10-18 16:50:00,
2013-10-18 12:55:00,68.0,54.9,30.00,NNE,31,1.0,4.0,63,0.00,,,0.00,Wunderground v.1.15,2013-10-18 16:55:00,
2013-10-18 13:00:00,68.2,54.2,30.00,East,82,1.0,1.0,61,0.00,,,0.00,Wunderground v.1.15,2013-10-18 17:00:00,
2013-10-18 13:05:00,68.5,55.0,30.00,NNE,18,1.0,3.0,62,0.00,,,0.00,Wunderground v.1.15,2013-10-18 17:05:00,
2013-10-18 13:10:00,68.5,54.1,30.00,ENE,58,1.0,4.0,60,0.00,,,0.00,Wunderground v.1.15,2013-10-18 17:10:00,
2013-10-18 13:15:00,68.6,53.2,30.00,East,97,1.0,4.0,58,0.00,,,0.00,Wunderground v.1.15,2013-10-18 17:15:00,
2013-10-18 13:20:00,68.8,53.9,30.00,SSE,157,1.0,1.0,59,0.00,,,0.00,Wunderground v.1.15,2013-10-18 17:20:00,
2013-10-18 13:25:00,69.0,54.5,29.99,NNE,12,1.0,4.0,60,0.00,,,0.00,Wunderground v.1.15,2013-10-18 17:25:00,
2013-10-18 13:30:00,69.3,55.3,29.99,NE,38,0.0,4.0,61,0.00,,,0.00,Wunderground v.1.15,2013-10-18 17:30:00,
2013-10-18 13:35:00,69.1,54.6,29.99,NNW,336,0.0,4.0,60,0.00,,,0.00,Wunderground v.1.15,2013-10-18 17:35:00,
2013-10-18 13:40:00,69.3,54.4,29.98,SSE,158,1.0,4.0,59,0.00,,,0.00,Wunderground v.1.15,2013-10-18 17:40:00,
2013-10-18 13:45:00,69.4,54.4,29.98,ENE,77,1.0,4.0,59,0.00,,,0.00,Wunderground v.1.15,2013-10-18 17:45:00,
2013-10-18 13:50:00,69.7,54.7,29.98,East,87,0.0,4.0,59,0.00,,,0.00,Wunderground v.1.15,2013-10-18 17:50:00,
2013-10-18 13:55:00,69.8,54.8,29.98,North,9,0.0,4.0,59,0.00,,,0.00,Wunderground v.1.15,2013-10-18 17:55:00,
2013-10-18 14:00:00,70.1,55.1,29.97,NE,40,1.0,1.0,59,0.00,,,0.00,Wunderground v.1.15,2013-10-18 18:00:00,
2013-10-18 14:05:00,70.1,54.6,29.98,North,360,0.0,4.0,58,0.00,,,0.00,Wunderground v.1.15,2013-10-18 18:05:00,
2013-10-18 14:10:00,70.6,56.0,29.98,SSW,210,0.0,4.0,60,0.00,,,0.00,Wunderground v.1.15,2013-10-18 18:10:00,
2013-10-18 14:15:00,70.7,55.7,29.97,North,5,0.0,4.0,59,0.00,,,0.00,Wunderground v.1.15,2013-10-18 18:15:00,
2013-10-18 14:20:00,70.7,55.2,29.97,ESE,120,0.0,4.0,58,0.00,,,0.00,Wunderground v.1.15,2013-10-18 18:20:00,
2013-10-18 14:25:00,70.8,54.8,29.97,NNW,339,0.0,4.0,57,0.00,,,0.00,Wunderground v.1.15,2013-10-18 18:25:00,
2013-10-18 14:30:00,70.7,55.7,29.97,East,93,0.0,4.0,59,0.00,,,0.00,Wunderground v.1.15,2013-10-18 18:30:00,
2013-10-18 14:35:00,70.9,54.9,29.97,NE,40,1.0,4.0,57,0.00,,,0.00,Wunderground v.1.15,2013-10-18 18:35:00,
2013-10-18 14:40:00,70.7,54.2,29.97,NE,40,1.0,4.0,56,0.00,,,0.00,Wunderground v.1.15,2013-10-18 18:40:00,
2013-10-18 14:45:00,70.4,54.9,29.96,WNW,302,1.0,4.0,58,0.00,,,0.00,Wunderground v.1.15,2013-10-18 18:45:00,
2013-10-18 14:50:00,70.0,54.5,29.96,WNW,302,1.0,1.0,58,0.00,,,0.00,Wunderground v.1.15,2013-10-18 18:50:00,
2013-10-18 14:55:00,70.0,54.5,29.96,SSE,159,1.0,4.0,58,0.00,,,0.00,Wunderground v.1.15,2013-10-18 18:55:00,
2013-10-18 15:00:00,70.1,55.1,29.96,ENE,67,0.0,4.0,59,0.00,,,0.00,Wunderground v.1.15,2013-10-18 19:00:00,
2013-10-18 15:05:00,70.3,56.2,29.96,ENE,66,0.0,4.0,61,0.00,,,0.00,Wunderground v.1.15,2013-10-18 19:05:00,
2013-10-18 15:10:00,70.6,56.0,29.96,East,80,0.0,4.0,60,0.00,,,0.00,Wunderground v.1.15,2013-10-18 19:10:00,
2013-10-18 15:15:00,70.6,55.6,29.96,ENE,67,0.0,4.0,59,0.00,,,0.00,Wunderground v.1.15,2013-10-18 19:15:00,
2013-10-18 15:20:00,70.6,55.6,29.96,SE,126,0.0,4.0,59,0.00,,,0.00,Wunderground v.1.15,2013-10-18 19:20:00,
2013-10-18 15:25:00,70.6,55.1,29.96,SE,126,0.0,4.0,58,0.00,,,0.00,Wunderground v.1.15,2013-10-18 19:25:00,
2013-10-18 15:30:00,70.5,55.0,29.95,ENE,77,0.0,4.0,58,0.00,,,0.00,Wunderground v.1.15,2013-10-18 19:30:00,
2013-10-18 15:35:00,70.3,55.8,29.95,ENE,77,0.0,4.0,60,0.00,,,0.00,Wunderground v.1.15,2013-10-18 19:35:00,
2013-10-18 15:40:00,70.2,55.7,29.95,ENE,77,0.0,4.0,60,0.00,,,0.00,Wunderground v.1.15,2013-10-18 19:40:00,
2013-10-18 15:45:00,70.1,55.6,29.95,ENE,78,0.0,4.0,60,0.00,,,0.00,Wunderground v.1.15,2013-10-18 19:45:00,
2013-10-18 15:50:00,70.0,55.9,29.95,ENE,78,0.0,4.0,61,0.00,,,0.00,Wunderground v.1.15,2013-10-18 19:50:00,
2013-10-18 15:55:00,69.8,55.3,29.95,ENE,78,0.0,4.0,60,0.00,,,0.00,Wunderground v.1.15,2013-10-18 19:55:00,
2013-10-18 16:00:00,69.7,56.1,29.95,ENE,78,0.0,4.0,62,0.00,,,0.00,Wunderground v.1.15,2013-10-18 20:00:00,
2013-10-18 16:05:00,69.7,55.6,29.95,ENE,78,0.0,4.0,61,0.00,,,0.00,Wunderground v.1.15,2013-10-18 20:05:00,
2013-10-18 16:10:00,69.7,55.6,29.95,SSE,161,0.0,4.0,61,0.00,,,0.00,Wunderground v.1.15,2013-10-18 20:10:00,
2013-10-18 16:15:00,69.8,56.2,29.95,SSE,161,0.0,4.0,62,0.00,,,0.00,Wunderground v.1.15,2013-10-18 20:15:00,
2013-10-18 16:20:00,69.8,56.6,29.95,SSE,161,0.0,4.0,63,0.00,,,0.00,Wunderground v.1.15,2013-10-18 20:20:00,
2013-10-18 16:25:00,69.9,56.7,29.95,SSE,161,0.0,4.0,63,0.00,,,0.00,Wunderground v.1.15,2013-10-18 20:25:00,
2013-10-18 16:30:00,70.0,56.8,29.95,SSE,161,0.0,4.0,63,0.00,,,0.00,Wunderground v.1.15,2013-10-18 20:30:00,
2013-10-18 16:35:00,70.2,57.0,29.94,SSE,161,0.0,4.0,63,0.00,,,0.00,Wunderground v.1.15,2013-10-18 20:35:00,
2013-10-18 16:40:00,70.3,57.1,29.94,SSE,161,0.0,4.0,63,0.00,,,0.00,Wunderground v.1.15,2013-10-18 20:40:00,
2013-10-18 16:45:00,70.3,57.5,29.94,SSE,161,0.0,4.0,64,0.00,,,0.00,Wunderground v.1.15,2013-10-18 20:45:00,
2013-10-18 16:50:00,70.4,58.1,29.95,SSE,161,0.0,4.0,65,0.00,,,0.00,Wunderground v.1.15,2013-10-18 20:50:00,
2013-10-18 16:55:00,70.5,56.9,29.94,ENE,78,0.0,4.0,62,0.00,,,0.00,Wunderground v.1.15,2013-10-18 20:55:00,
2013-10-18 17:00:00,70.6,56.9,29.94,ENE,69,0.0,4.0,62,0.00,,,0.00,Wunderground v.1.15,2013-10-18 21:00:00,
2013-10-18 17:05:00,70.6,56.0,29.94,ENE,69,0.0,4.0,60,0.00,,,0.00,Wunderground v.1.15,2013-10-18 21:05:00,
2013-10-18 17:15:00,71.0,57.3,29.94,ENE,69,0.0,0.0,62,0.00,,,0.00,Wunderground v.1.15,2013-10-18 21:15:00,
2013-10-18 17:20:00,71.1,57.4,29.94,ENE,69,0.0,0.0,62,0.00,,,0.00,Wunderground v.1.15,2013-10-18 21:20:00,
2013-10-18 17:25:00,71.1,57.0,29.94,ENE,69,0.0,0.0,61,0.00,,,0.00,Wunderground v.1.15,2013-10-18 21:25:00,
2013-10-18 17:30:00,71.3,58.1,29.94,ENE,69,0.0,0.0,63,0.00,,,0.00,Wunderground v.1.15,2013-10-18 21:30:00,
2013-10-18 17:35:00,71.4,58.6,29.94,ENE,69,0.0,0.0,64,0.00,,,0.00,Wunderground v.1.15,2013-10-18 21:35:00,
2013-10-18 17:40:00,71.1,57.9,29.94,ENE,69,0.0,0.0,63,0.00,,,0.00,Wunderground v.1.15,2013-10-18 21:40:00,
2013-10-18 17:45:00,70.8,58.0,29.95,ENE,69,0.0,0.0,64,0.00,,,0.00,Wunderground v.1.15,2013-10-18 21:45:00,
2013-10-18 17:50:00,70.6,57.8,29.95,ENE,69,0.0,0.0,64,0.00,,,0.00,Wunderground v.1.15,2013-10-18 21:50:00,
2013-10-18 18:00:00,70.6,58.3,29.95,ENE,69,0.0,0.0,65,0.00,,,0.00,Wunderground v.1.15,2013-10-18 22:00:00,
2013-10-18 18:05:00,70.6,58.3,29.95,ENE,69,0.0,3.0,65,0.00,,,0.00,Wunderground v.1.15,2013-10-18 22:05:00,
2013-10-18 18:10:00,70.6,58.7,29.95,ENE,69,0.0,3.0,66,0.00,,,0.00,Wunderground v.1.15,2013-10-18 22:10:00,
2013-10-18 18:15:00,70.2,59.1,29.95,ENE,69,0.0,3.0,68,0.00,,,0.00,Wunderground v.1.15,2013-10-18 22:15:00,
2013-10-18 18:20:00,69.8,58.8,29.95,ENE,73,0.0,3.0,68,0.00,,,0.00,Wunderground v.1.15,2013-10-18 22:20:00,
2013-10-18 18:25:00,69.4,58.4,29.95,ENE,73,0.0,3.0,68,0.00,,,0.00,Wunderground v.1.15,2013-10-18 22:25:00,
2013-10-18 18:30:00,69.0,58.4,29.95,ENE,73,0.0,3.0,69,0.00,,,0.00,Wunderground v.1.15,2013-10-18 22:30:00,
2013-10-18 18:35:00,68.8,58.6,29.95,ENE,73,0.0,3.0,70,0.00,,,0.00,Wunderground v.1.15,2013-10-18 22:35:00,
2013-10-18 18:40:00,68.5,58.7,29.95,ENE,73,0.0,3.0,71,0.00,,,0.00,Wunderground v.1.15,2013-10-18 22:40:00,
2013-10-18 18:45:00,68.1,58.3,29.95,ENE,75,0.0,3.0,71,0.00,,,0.00,Wunderground v.1.15,2013-10-18 22:45:00,
2013-10-18 18:50:00,67.7,58.3,29.95,SE,146,0.0,3.0,72,0.00,,,0.00,Wunderground v.1.15,2013-10-18 22:50:00,
2013-10-18 18:55:00,67.4,58.1,29.95,SE,136,0.0,3.0,72,0.00,,,0.00,Wunderground v.1.15,2013-10-18 22:55:00,
2013-10-18 19:05:00,66.7,57.8,29.95,NE,35,0.0,3.0,73,0.00,,,0.00,Wunderground v.1.15,2013-10-18 23:05:00,
2013-10-18 19:10:00,66.4,57.9,29.95,East,92,0.0,3.0,74,0.00,,,0.00,Wunderground v.1.15,2013-10-18 23:10:00,
2013-10-18 19:15:00,66.1,57.9,29.95,East,92,0.0,3.0,75,0.00,,,0.00,Wunderground v.1.15,2013-10-18 23:15:00,
2013-10-18 19:20:00,65.8,57.7,29.95,SE,135,0.0,3.0,75,0.00,,,0.00,Wunderground v.1.15,2013-10-18 23:20:00,
2013-10-18 19:25:00,65.5,57.7,29.95,ESE,106,0.0,3.0,76,0.00,,,0.00,Wunderground v.1.15,2013-10-18 23:25:00,
2013-10-18 19:35:00,65.0,57.6,29.96,NNE,30,0.0,3.0,77,0.00,,,0.00,Wunderground v.1.15,2013-10-18 23:35:00,
2013-10-18 19:40:00,64.8,57.4,29.96,NNE,26,0.0,3.0,77,0.00,,,0.00,Wunderground v.1.15,2013-10-18 23:40:00,
2013-10-18 19:45:00,64.6,57.2,29.96,NE,42,1.0,3.0,77,0.00,,,0.00,Wunderground v.1.15,2013-10-18 23:45:00,
2013-10-18 19:50:00,64.3,56.9,29.96,South,174,1.0,3.0,77,0.00,,,0.00,Wunderground v.1.15,2013-10-18 23:50:00,
2013-10-18 19:55:00,64.1,56.7,29.96,NE,37,0.0,3.0,77,0.00,,,0.00,Wunderground v.1.15,2013-10-18 23:55:00,
2013-10-18 20:00:00,63.9,56.9,29.96,SE,130,0.0,3.0,78,0.00,,,0.00,Wunderground v.1.15,2013-10-19 00:00:00,
2013-10-18 20:10:00,63.6,56.6,29.96,SSE,155,0.0,3.0,78,0.00,,,0.00,Wunderground v.1.15,2013-10-19 00:10:00,
2013-10-18 20:15:00,63.4,56.4,29.96,SSE,154,0.0,3.0,78,0.00,,,0.00,Wunderground v.1.15,2013-10-19 00:15:00,
2013-10-18 20:20:00,63.2,56.2,29.96,SSE,154,0.0,3.0,78,0.00,,,0.00,Wunderground v.1.15,2013-10-19 00:20:00,
2013-10-18 20:25:00,63.1,56.1,29.96,SE,128,0.0,3.0,78,0.00,,,0.00,Wunderground v.1.15,2013-10-19 00:25:00,
2013-10-18 20:30:00,62.9,56.3,29.96,NE,55,0.0,3.0,79,0.00,,,0.00,Wunderground v.1.15,2013-10-19 00:30:00,
2013-10-18 20:35:00,62.8,56.2,29.97,East,80,0.0,3.0,79,0.00,,,0.00,Wunderground v.1.15,2013-10-19 00:35:00,
2013-10-18 20:40:00,62.7,56.1,29.97,NE,43,0.0,3.0,79,0.00,,,0.00,Wunderground v.1.15,2013-10-19 00:40:00,
2013-10-18 20:45:00,62.6,56.3,29.97,NE,43,0.0,3.0,80,0.00,,,0.00,Wunderground v.1.15,2013-10-19 00:45:00,
2013-10-18 20:50:00,62.5,56.2,29.97,NE,43,0.0,3.0,80,0.00,,,0.00,Wunderground v.1.15,2013-10-19 00:50:00,
2013-10-18 20:55:00,62.3,56.0,29.97,ENE,62,0.0,3.0,80,0.00,,,0.00,Wunderground v.1.15,2013-10-19 00:55:00,
2013-10-18 21:00:00,62.2,56.0,29.97,ENE,65,0.0,3.0,80,0.00,,,0.00,Wunderground v.1.15,2013-10-19 01:00:00,
2013-10-18 21:05:00,62.0,55.8,29.97,NW,319,0.0,3.0,80,0.00,,,0.00,Wunderground v.1.15,2013-10-19 01:05:00,
2013-10-18 21:10:00,61.9,56.0,29.97,NNW,327,0.0,3.0,81,0.00,,,0.00,Wunderground v.1.15,2013-10-19 01:10:00,
2013-10-18 21:15:00,61.8,55.9,29.97,NNW,327,0.0,3.0,81,0.00,,,0.00,Wunderground v.1.15,2013-10-19 01:15:00,
2013-10-18 21:20:00,61.6,55.7,29.97,NNW,327,0.0,3.0,81,0.00,,,0.00,Wunderground v.1.15,2013-10-19 01:20:00,
2013-10-18 21:25:00,61.5,56.0,29.97,NNW,327,0.0,3.0,82,0.00,,,0.00,Wunderground v.1.15,2013-10-19 01:25:00,
2013-10-18 21:30:00,61.3,55.8,29.97,NE,45,0.0,3.0,82,0.00,,,0.00,Wunderground v.1.15,2013-10-19 01:30:00,
2013-10-18 21:40:00,61.3,56.1,29.97,East,86,0.0,3.0,83,0.00,,,0.00,Wunderground v.1.15,2013-10-19 01:40:00,
2013-10-18 21:45:00,61.2,56.0,29.98,East,92,0.0,3.0,83,0.00,,,0.00,Wunderground v.1.15,2013-10-19 01:45:00,
2013-10-18 21:50:00,61.2,56.0,29.98,East,92,0.0,3.0,83,0.00,,,0.00,Wunderground v.1.15,2013-10-19 01:50:00,
2013-10-18 21:55:00,61.1,55.9,29.98,East,84,0.0,3.0,83,0.00,,,0.00,Wunderground v.1.15,2013-10-19 01:55:00,
2013-10-18 22:00:00,61.1,55.9,29.98,ESE,111,0.0,3.0,83,0.00,,,0.00,Wunderground v.1.15,2013-10-19 02:00:00,
2013-10-18 22:10:00,60.8,55.6,29.98,ESE,102,0.0,3.0,83,0.00,,,0.00,Wunderground v.1.15,2013-10-19 02:10:00,
2013-10-18 22:15:00,60.7,55.5,29.98,East,91,0.0,3.0,83,0.00,,,0.00,Wunderground v.1.15,2013-10-19 02:15:00,
2013-10-18 22:20:00,60.7,55.5,29.98,East,91,0.0,3.0,83,0.00,,,0.00,Wunderground v.1.15,2013-10-19 02:20:00,
2013-10-18 22:25:00,60.6,55.7,29.98,East,84,0.0,3.0,84,0.00,,,0.00,Wunderground v.1.15,2013-10-19 02:25:00,
2013-10-18 22:30:00,60.5,55.6,29.98,East,84,0.0,3.0,84,0.00,,,0.00,Wunderground v.1.15,2013-10-19 02:30:00,
2013-10-18 22:35:00,60.4,55.2,29.98,East,84,0.0,3.0,83,0.00,,,0.00,Wunderground v.1.15,2013-10-19 02:35:00,
2013-10-18 22:40:00,60.4,55.5,29.98,East,84,0.0,3.0,84,0.00,,,0.00,Wunderground v.1.15,2013-10-19 02:40:00,
2013-10-18 22:45:00,60.3,55.4,29.98,East,91,0.0,3.0,84,0.00,,,0.00,Wunderground v.1.15,2013-10-19 02:45:00,
2013-10-18 22:50:00,60.2,55.3,29.98,East,91,0.0,3.0,84,0.00,,,0.00,Wunderground v.1.15,2013-10-19 02:50:00,
2013-10-18 22:55:00,60.1,55.2,29.98,East,91,0.0,3.0,84,0.00,,,0.00,Wunderground v.1.15,2013-10-19 02:55:00,
2013-10-18 23:00:00,60.0,55.2,29.97,East,90,0.0,-999.0,84,0.00,,,0.00,Wunderground v.1.15,2013-10-19 03:00:00,
2013-10-18 23:05:00,60.0,55.2,29.97,East,90,0.0,-999.0,84,0.00,,,0.00,Wunderground v.1.15,2013-10-19 03:05:00,
2013-10-18 23:10:00,60.0,55.2,29.97,East,90,0.0,-999.0,84,0.00,,,0.00,Wunderground v.1.15,2013-10-19 03:10:00,
2013-10-18 23:15:00,59.9,55.4,29.97,East,90,0.0,-999.0,85,0.00,,,0.00,Wunderground v.1.15,2013-10-19 03:15:00,
2013-10-18 23:20:00,59.9,55.4,29.97,East,90,0.0,-999.0,85,0.00,,,0.00,Wunderground v.1.15,2013-10-19 03:20:00,
2013-10-18 23:25:00,59.9,55.4,29.97,East,90,0.0,-999.0,85,0.00,,,0.00,Wunderground v.1.15,2013-10-19 03:25:00,
2013-10-18 23:30:00,59.9,55.4,29.97,East,90,0.0,-999.0,85,0.00,,,0.00,Wunderground v.1.15,2013-10-19 03:30:00,
2013-10-18 23:35:00,59.9,55.4,29.97,East,90,0.0,-999.0,85,0.00,,,0.00,Wunderground v.1.15,2013-10-19 03:35:00,
2013-10-18 23:40:00,59.9,55.4,29.97,East,90,0.0,-999.0,85,0.00,,,0.00,Wunderground v.1.15,2013-10-19 03:40:00,
2013-10-18 23:45:00,60.0,55.8,29.96,N/A,-737280,0.0,-999.0,86,0.00,,,0.00,Wunderground v.1.15,2013-10-19 03:45:00,
2013-10-18 23:50:00,60.0,55.8,29.96,N/A,-737280,0.0,-999.0,86,0.00,,,0.00,Wunderground v.1.15,2013-10-19 03:50:00,
2013-10-18 23:55:00,60.0,55.8,29.96,N/A,-737280,0.0,-999.0,86,0.00,,,0.00,Wunderground v.1.15,2013-10-19 03:55:00,